CSC8083 ZUCK-ZSHC
Flight info
| Callsign | CSC8083 |
|---|---|
| Flight time | N/A |
| Altitude | 33100 |
| Route | OLNER B213 WHA R343 UPLEL W95 SAPIN A470 IGRAT |
| Aircraft | A321/M-SDE3FGHIRWY/LB1 |
Departure
| Time | 2026-04-27 11:55 |
|---|---|
| Airport | Chongqing Jiangbei International Airport (ZUCK) |
Arrival
| Time | N/A |
|---|---|
| Airport | Hangzhou Xiaoshan International Airport (ZSHC) |
| Time | Latitude | Longitude | Altitude | Speed | Heading |
|---|---|---|---|---|---|
| 2026-04-27 11:25 | 29.73083 | 106.65968 | 1338 ft | 0 kts | 286° |
| 2026-04-27 11:43 | 29.73080 | 106.65983 | 1337 ft | 4 kts | 286° |
| 2026-04-27 11:43 | 29.73072 | 106.66013 | 1339 ft | 4 kts | 287° |
| 2026-04-27 11:44 | 29.73065 | 106.66039 | 1340 ft | 3 kts | 288° |
| 2026-04-27 11:44 | 29.73053 | 106.66061 | 1340 ft | 4 kts | 341° |
| 2026-04-27 11:44 | 29.73028 | 106.66062 | 1336 ft | 4 kts | 9° |
| 2026-04-27 11:44 | 29.73013 | 106.66060 | 1337 ft | 1 kts | 5° |
| 2026-04-27 11:47 | 29.73032 | 106.66062 | 1341 ft | 11 kts | 5° |
| 2026-04-27 11:47 | 29.73164 | 106.66110 | 1334 ft | 23 kts | 49° |
| 2026-04-27 11:47 | 29.73176 | 106.66232 | 1331 ft | 11 kts | 118° |
| 2026-04-27 11:48 | 29.73165 | 106.66285 | 1330 ft | 5 kts | 73° |
| 2026-04-27 11:48 | 29.73188 | 106.66330 | 1329 ft | 12 kts | 52° |
| 2026-04-27 11:48 | 29.73249 | 106.66422 | 1327 ft | 13 kts | 86° |
| 2026-04-27 11:48 | 29.73205 | 106.66507 | 1326 ft | 11 kts | 112° |
| 2026-04-27 11:49 | 29.73215 | 106.66573 | 1325 ft | 6 kts | 50° |
| 2026-04-27 11:49 | 29.73236 | 106.66580 | 1325 ft | 2 kts | 355° |
| 2026-04-27 11:49 | 29.73287 | 106.66583 | 1324 ft | 15 kts | 8° |
| 2026-04-27 11:49 | 29.73407 | 106.66621 | 1323 ft | 17 kts | 17° |
| 2026-04-27 11:50 | 29.73509 | 106.66656 | 1322 ft | 15 kts | 17° |
| 2026-04-27 11:50 | 29.73600 | 106.66687 | 1323 ft | 13 kts | 17° |
| 2026-04-27 11:50 | 29.73714 | 106.66726 | 1320 ft | 23 kts | 18° |
| 2026-04-27 11:50 | 29.73890 | 106.66787 | 1319 ft | 26 kts | 16° |
| 2026-04-27 11:51 | 29.74050 | 106.66840 | 1318 ft | 22 kts | 16° |
| 2026-04-27 11:51 | 29.74185 | 106.66887 | 1318 ft | 18 kts | 17° |
| 2026-04-27 11:51 | 29.74385 | 106.66958 | 1316 ft | 15 kts | 17° |
| 2026-04-27 11:52 | 29.74539 | 106.67016 | 1315 ft | 28 kts | 18° |
| 2026-04-27 11:52 | 29.74710 | 106.67072 | 1313 ft | 18 kts | 16° |
| 2026-04-27 11:52 | 29.74735 | 106.67136 | 1312 ft | 8 kts | 118° |
| 2026-04-27 11:52 | 29.74721 | 106.67185 | 1311 ft | 5 kts | 106° |
| 2026-04-27 11:53 | 29.74716 | 106.67207 | 1311 ft | 2 kts | 106° |
| 2026-04-27 11:53 | 29.74668 | 106.67261 | 1312 ft | 17 kts | 168° |
| 2026-04-27 11:53 | 29.74633 | 106.67249 | 1312 ft | 0 kts | 210° |
| 2026-04-27 11:53 | 29.74569 | 106.67227 | 1312 ft | 28 kts | 197° |
| 2026-04-27 11:54 | 29.74163 | 106.67085 | 1316 ft | 91 kts | 196° |
| 2026-04-27 11:54 | 29.73384 | 106.66821 | 1322 ft | 139 kts | 197° |
| 2026-04-27 11:54 | 29.72331 | 106.66454 | 1350 ft | 175 kts | 197° |
| 2026-04-27 11:54 | 29.71152 | 106.66054 | 1801 ft | 175 kts | 195° |
| 2026-04-27 11:55 | 29.69947 | 106.65839 | 2340 ft | 176 kts | 182° |
| 2026-04-27 11:55 | 29.68701 | 106.65803 | 2718 ft | 186 kts | 180° |
| 2026-04-27 11:55 | 29.67338 | 106.65795 | 2855 ft | 205 kts | 180° |
| 2026-04-27 11:55 | 29.65839 | 106.65783 | 2974 ft | 227 kts | 180° |
| 2026-04-27 11:56 | 29.64193 | 106.65759 | 3200 ft | 250 kts | 180° |
| 2026-04-27 11:56 | 29.62428 | 106.65720 | 3862 ft | 256 kts | 181° |
| 2026-04-27 11:56 | 29.60634 | 106.65671 | 4630 ft | 259 kts | 182° |
| 2026-04-27 11:56 | 29.58821 | 106.65644 | 5405 ft | 263 kts | 176° |
| 2026-04-27 11:57 | 29.57112 | 106.66352 | 6099 ft | 268 kts | 141° |
| 2026-04-27 11:57 | 29.56019 | 106.68076 | 6775 ft | 272 kts | 112° |
| 2026-04-27 11:57 | 29.55457 | 106.70163 | 7480 ft | 275 kts | 104° |
| 2026-04-27 11:57 | 29.55074 | 106.72332 | 8166 ft | 280 kts | 100° |
| 2026-04-27 11:58 | 29.54742 | 106.74523 | 8708 ft | 285 kts | 100° |
| 2026-04-27 11:58 | 29.54403 | 106.76733 | 8866 ft | 284 kts | 101° |
| 2026-04-27 11:58 | 29.54034 | 106.78972 | 9117 ft | 288 kts | 102° |
| 2026-04-27 11:58 | 29.53636 | 106.81219 | 9896 ft | 288 kts | 102° |
| 2026-04-27 11:59 | 29.53215 | 106.83473 | 10537 ft | 290 kts | 103° |
| 2026-04-27 11:59 | 29.52780 | 106.85743 | 11183 ft | 292 kts | 103° |
| 2026-04-27 11:59 | 29.52409 | 106.88075 | 11563 ft | 307 kts | 91° |
| 2026-04-27 11:59 | 29.52886 | 106.90514 | 11693 ft | 327 kts | 61° |
| 2026-04-27 12:00 | 29.54311 | 106.92587 | 11834 ft | 346 kts | 42° |
| 2026-04-27 12:00 | 29.56309 | 106.94258 | 11974 ft | 365 kts | 28° |
| 2026-04-27 12:00 | 29.58689 | 106.95382 | 12325 ft | 375 kts | 17° |
| 2026-04-27 12:00 | 29.61193 | 106.96305 | 12857 ft | 380 kts | 17° |
| 2026-04-27 12:01 | 29.63727 | 106.97229 | 13448 ft | 384 kts | 17° |
| 2026-04-27 12:01 | 29.66289 | 106.98147 | 14006 ft | 388 kts | 16° |
| 2026-04-27 12:01 | 29.68877 | 106.99061 | 14516 ft | 391 kts | 16° |
| 2026-04-27 12:01 | 29.71491 | 106.99976 | 15043 ft | 394 kts | 16° |
| 2026-04-27 12:02 | 29.74126 | 107.00893 | 15564 ft | 397 kts | 15° |
| 2026-04-27 12:02 | 29.76750 | 107.01803 | 16057 ft | 400 kts | 15° |
| 2026-04-27 12:02 | 29.79429 | 107.02735 | 16534 ft | 404 kts | 15° |
| 2026-04-27 12:02 | 29.82129 | 107.03676 | 17023 ft | 407 kts | 15° |
| 2026-04-27 12:03 | 29.84849 | 107.04628 | 17516 ft | 410 kts | 15° |
| 2026-04-27 12:03 | 29.87584 | 107.05589 | 18051 ft | 411 kts | 15° |
| 2026-04-27 12:03 | 29.90331 | 107.06556 | 18476 ft | 414 kts | 15° |
| 2026-04-27 12:03 | 29.93091 | 107.07528 | 18867 ft | 417 kts | 15° |
| 2026-04-27 12:04 | 29.95878 | 107.08506 | 19251 ft | 420 kts | 15° |
| 2026-04-27 12:04 | 29.98645 | 107.09474 | 19627 ft | 423 kts | 15° |
| 2026-04-27 12:04 | 30.01477 | 107.10468 | 20009 ft | 426 kts | 15° |
| 2026-04-27 12:04 | 30.04251 | 107.11697 | 20357 ft | 432 kts | 28° |
| 2026-04-27 12:05 | 30.06622 | 107.13843 | 20701 ft | 438 kts | 47° |
| 2026-04-27 12:05 | 30.08290 | 107.16784 | 21038 ft | 442 kts | 67° |
| 2026-04-27 12:05 | 30.09061 | 107.20214 | 21367 ft | 444 kts | 86° |
| 2026-04-27 12:05 | 30.08825 | 107.23756 | 21696 ft | 444 kts | 106° |
| 2026-04-27 12:06 | 30.07950 | 107.27178 | 22052 ft | 446 kts | 109° |
| 2026-04-27 12:06 | 30.07026 | 107.30610 | 22389 ft | 449 kts | 109° |
| 2026-04-27 12:06 | 30.06099 | 107.34015 | 22741 ft | 452 kts | 109° |
| 2026-04-27 12:06 | 30.05156 | 107.37482 | 23091 ft | 455 kts | 109° |
| 2026-04-27 12:07 | 30.04213 | 107.40977 | 23430 ft | 457 kts | 109° |
| 2026-04-27 12:07 | 30.03270 | 107.44492 | 23725 ft | 460 kts | 109° |
| 2026-04-27 12:07 | 30.02326 | 107.48022 | 24022 ft | 462 kts | 109° |
| 2026-04-27 12:07 | 30.01376 | 107.51575 | 24301 ft | 464 kts | 109° |
| 2026-04-27 12:08 | 30.00420 | 107.55133 | 24598 ft | 466 kts | 109° |
| 2026-04-27 12:08 | 29.99452 | 107.58712 | 24897 ft | 468 kts | 109° |
| 2026-04-27 12:08 | 29.98493 | 107.62253 | 25192 ft | 470 kts | 109° |
| 2026-04-27 12:08 | 29.97517 | 107.65858 | 25494 ft | 472 kts | 109° |
| 2026-04-27 12:09 | 29.96538 | 107.69480 | 25789 ft | 474 kts | 109° |
| 2026-04-27 12:09 | 29.95554 | 107.73119 | 26074 ft | 477 kts | 109° |
| 2026-04-27 12:09 | 29.94615 | 107.76797 | 26365 ft | 480 kts | 104° |
| 2026-04-27 12:09 | 29.94104 | 107.80606 | 26634 ft | 484 kts | 95° |
| 2026-04-27 12:10 | 29.94131 | 107.84499 | 26905 ft | 487 kts | 85° |
| 2026-04-27 12:10 | 29.94705 | 107.88355 | 27172 ft | 490 kts | 75° |
| 2026-04-27 12:10 | 29.95659 | 107.92131 | 27436 ft | 492 kts | 73° |
| 2026-04-27 12:10 | 29.96615 | 107.95875 | 27704 ft | 494 kts | 73° |
| 2026-04-27 12:11 | 29.97576 | 107.99681 | 27976 ft | 496 kts | 74° |
| 2026-04-27 12:11 | 29.98536 | 108.03510 | 28252 ft | 498 kts | 74° |
| 2026-04-27 12:11 | 29.99497 | 108.07353 | 28521 ft | 500 kts | 74° |
| 2026-04-27 12:11 | 30.00463 | 108.11213 | 28785 ft | 502 kts | 74° |
| 2026-04-27 12:12 | 30.01436 | 108.15084 | 29075 ft | 502 kts | 74° |
| 2026-04-27 12:12 | 30.02407 | 108.18948 | 29449 ft | 501 kts | 74° |